sensor_id;sensor_type;location;lat;lon;timestamp;P1;durP1;ratioP1;P2;durP2;ratioP2
5955;SDS011;3004;48.080;11.600;2023-04-25T04:34:09;72.43;;;5.50;;
5955;SDS011;3004;48.080;11.600;2023-04-25T04:36:37;72.30;;;5.50;;
5955;SDS011;3004;48.080;11.600;2023-04-25T04:39:16;72.50;;;5.53;;
5955;SDS011;3004;48.080;11.600;2023-04-25T04:41:45;72.43;;;5.60;;
5955;SDS011;3004;48.080;11.600;2023-04-25T04:44:16;72.40;;;5.60;;
5955;SDS011;3004;48.080;11.600;2023-04-25T04:46:43;72.77;;;5.57;;
5955;SDS011;3004;48.080;11.600;2023-04-25T04:49:13;72.37;;;5.53;;
5955;SDS011;3004;48.080;11.600;2023-04-25T04:51:40;72.47;;;5.50;;
5955;SDS011;3004;48.080;11.600;2023-04-25T04:54:11;72.10;;;5.40;;
5955;SDS011;3004;48.080;11.600;2023-04-25T04:56:39;72.07;;;5.40;;
5955;SDS011;3004;48.080;11.600;2023-04-25T04:59:08;72.30;;;5.40;;
5955;SDS011;3004;48.080;11.600;2023-04-25T05:01:36;72.17;;;5.30;;
5955;SDS011;3004;48.080;11.600;2023-04-25T05:04:03;72.43;;;5.53;;
5955;SDS011;3004;48.080;11.600;2023-04-25T05:06:32;72.00;;;5.47;;
5955;SDS011;3004;48.080;11.600;2023-04-25T05:09:00;72.07;;;5.23;;
5955;SDS011;3004;48.080;11.600;2023-04-25T05:11:29;72.10;;;5.33;;
5955;SDS011;3004;48.080;11.600;2023-04-25T05:13:58;72.50;;;5.40;;
5955;SDS011;3004;48.080;11.600;2023-04-25T05:16:27;72.57;;;5.40;;
5955;SDS011;3004;48.080;11.600;2023-04-25T05:19:01;72.50;;;5.43;;
5955;SDS011;3004;48.080;11.600;2023-04-25T05:21:58;72.10;;;5.37;;
5955;SDS011;3004;48.080;11.600;2023-04-25T05:24:30;72.00;;;5.40;;
5955;SDS011;3004;48.080;11.600;2023-04-25T05:27:13;71.50;;;5.30;;
5955;SDS011;3004;48.080;11.600;2023-04-25T05:29:41;72.30;;;5.60;;
5955;SDS011;3004;48.080;11.600;2023-04-25T05:32:09;72.60;;;5.90;;
5955;SDS011;3004;48.080;11.600;2023-04-25T05:34:43;72.67;;;5.53;;
5955;SDS011;3004;48.080;11.600;2023-04-25T05:43:56;72.87;;;5.70;;
5955;SDS011;3004;48.080;11.600;2023-04-25T05:46:27;72.03;;;5.50;;
5955;SDS011;3004;48.080;11.600;2023-04-25T05:48:57;72.40;;;5.53;;
5955;SDS011;3004;48.080;11.600;2023-04-25T05:51:24;72.77;;;5.67;;
5955;SDS011;3004;48.080;11.600;2023-04-25T05:54:02;72.70;;;5.60;;
5955;SDS011;3004;48.080;11.600;2023-04-25T05:56:32;72.30;;;5.43;;
5955;SDS011;3004;48.080;11.600;2023-04-25T05:59:18;72.60;;;5.60;;
5955;SDS011;3004;48.080;11.600;2023-04-25T06:01:45;72.63;;;5.60;;
5955;SDS011;3004;48.080;11.600;2023-04-25T06:04:15;72.90;;;5.57;;
5955;SDS011;3004;48.080;11.600;2023-04-25T06:06:44;72.57;;;5.60;;
5955;SDS011;3004;48.080;11.600;2023-04-25T06:09:27;72.00;;;5.60;;
5955;SDS011;3004;48.080;11.600;2023-04-25T06:11:56;71.57;;;5.20;;
5955;SDS011;3004;48.080;11.600;2023-04-25T06:14:28;71.30;;;4.90;;
5955;SDS011;3004;48.080;11.600;2023-04-25T06:16:56;70.70;;;4.63;;
5955;SDS011;3004;48.080;11.600;2023-04-25T06:19:23;70.60;;;4.60;;
5955;SDS011;3004;48.080;11.600;2023-04-25T06:22:02;70.07;;;4.40;;
5955;SDS011;3004;48.080;11.600;2023-04-25T06:24:34;70.23;;;4.40;;
5955;SDS011;3004;48.080;11.600;2023-04-25T06:27:01;70.13;;;4.40;;
5955;SDS011;3004;48.080;11.600;2023-04-25T06:29:30;70.37;;;4.40;;
5955;SDS011;3004;48.080;11.600;2023-04-25T06:31:57;70.40;;;4.60;;
5955;SDS011;3004;48.080;11.600;2023-04-25T06:34:25;70.87;;;4.63;;
5955;SDS011;3004;48.080;11.600;2023-04-25T06:36:52;71.03;;;4.80;;
5955;SDS011;3004;48.080;11.600;2023-04-25T06:39:21;71.30;;;4.80;;
5955;SDS011;3004;48.080;11.600;2023-04-25T06:41:56;71.30;;;4.93;;
5955;SDS011;3004;48.080;11.600;2023-04-25T06:44:23;74.23;;;7.27;;
5955;SDS011;3004;48.080;11.600;2023-04-25T06:46:55;71.70;;;5.10;;
5955;SDS011;3004;48.080;11.600;2023-04-25T06:49:23;71.57;;;5.10;;
5955;SDS011;3004;48.080;11.600;2023-04-25T06:51:50;71.80;;;5.10;;
5955;SDS011;3004;48.080;11.600;2023-04-25T06:54:24;71.10;;;4.80;;
5955;SDS011;3004;48.080;11.600;2023-04-25T06:56:54;71.27;;;4.80;;
5955;SDS011;3004;48.080;11.600;2023-04-25T06:59:24;71.60;;;5.10;;
5955;SDS011;3004;48.080;11.600;2023-04-25T07:02:05;70.20;;;4.60;;
5955;SDS011;3004;48.080;11.600;2023-04-25T07:04:39;70.70;;;4.50;;
5955;SDS011;3004;48.080;11.600;2023-04-25T07:07:06;70.37;;;4.37;;
5955;SDS011;3004;48.080;11.600;2023-04-25T07:09:34;70.00;;;4.30;;
5955;SDS011;3004;48.080;11.600;2023-04-25T07:12:01;70.57;;;4.70;;
5955;SDS011;3004;48.080;11.600;2023-04-25T07:14:34;70.20;;;4.27;;
5955;SDS011;3004;48.080;11.600;2023-04-25T07:17:17;70.20;;;4.33;;
5955;SDS011;3004;48.080;11.600;2023-04-25T07:19:50;71.97;;;4.10;;
5955;SDS011;3004;48.080;11.600;2023-04-25T07:22:31;69.67;;;4.00;;
5955;SDS011;3004;48.080;11.600;2023-04-25T07:25:10;69.57;;;4.07;;
5955;SDS011;3004;48.080;11.600;2023-04-25T07:27:53;69.30;;;3.90;;
5955;SDS011;3004;48.080;11.600;2023-04-25T07:30:45;69.53;;;4.00;;
5955;SDS011;3004;48.080;11.600;2023-04-25T07:33:28;69.57;;;4.10;;
5955;SDS011;3004;48.080;11.600;2023-04-25T07:35:59;69.40;;;3.90;;
5955;SDS011;3004;48.080;11.600;2023-04-25T07:38:29;69.50;;;4.10;;
5955;SDS011;3004;48.080;11.600;2023-04-25T07:41:00;69.70;;;3.97;;
5955;SDS011;3004;48.080;11.600;2023-04-25T07:52:27;68.70;;;3.40;;
5955;SDS011;3004;48.080;11.600;2023-04-25T07:58:25;67.73;;;3.10;;
5955;SDS011;3004;48.080;11.600;2023-04-25T08:10:34;66.53;;;2.60;;
5955;SDS011;3004;48.080;11.600;2023-04-25T08:16:13;66.57;;;2.60;;
5955;SDS011;3004;48.080;11.600;2023-04-25T08:38:05;66.77;;;1.80;;
5955;SDS011;3004;48.080;11.600;2023-04-25T09:02:56;66.87;;;1.60;;
5955;SDS011;3004;48.080;11.600;2023-04-25T09:08:28;66.73;;;1.50;;
5955;SDS011;3004;48.080;11.600;2023-04-25T09:17:28;66.70;;;1.50;;
5955;SDS011;3004;48.080;11.600;2023-04-25T09:20:11;67.10;;;1.40;;
5955;SDS011;3004;48.080;11.600;2023-04-25T09:26:07;67.57;;;1.20;;
5955;SDS011;3004;48.080;11.600;2023-04-25T09:34:51;68.00;;;1.60;;
5955;SDS011;3004;48.080;11.600;2023-04-25T09:46:52;66.97;;;1.20;;
5955;SDS011;3004;48.080;11.600;2023-04-25T09:49:27;67.20;;;1.27;;
5955;SDS011;3004;48.080;11.600;2023-04-25T09:51:54;66.90;;;1.40;;
5955;SDS011;3004;48.080;11.600;2023-04-25T09:54:27;66.80;;;1.20;;
5955;SDS011;3004;48.080;11.600;2023-04-25T09:56:57;67.47;;;1.40;;
5955;SDS011;3004;48.080;11.600;2023-04-25T09:59:43;67.43;;;2.13;;
5955;SDS011;3004;48.080;11.600;2023-04-25T10:02:24;67.10;;;1.33;;
5955;SDS011;3004;48.080;11.600;2023-04-25T10:04:59;67.30;;;1.20;;
5955;SDS011;3004;48.080;11.600;2023-04-25T10:07:41;67.30;;;1.30;;
5955;SDS011;3004;48.080;11.600;2023-04-25T10:10:10;67.57;;;1.20;;
5955;SDS011;3004;48.080;11.600;2023-04-25T10:12:46;66.60;;;1.20;;
5955;SDS011;3004;48.080;11.600;2023-04-25T10:15:21;67.10;;;1.20;;
5955;SDS011;3004;48.080;11.600;2023-04-25T10:17:50;66.70;;;1.20;;
5955;SDS011;3004;48.080;11.600;2023-04-25T10:20:18;67.13;;;1.30;;
5955;SDS011;3004;48.080;11.600;2023-04-25T10:23:02;67.07;;;1.20;;
5955;SDS011;3004;48.080;11.600;2023-04-25T10:25:31;66.67;;;1.20;;
5955;SDS011;3004;48.080;11.600;2023-04-25T10:28:04;67.07;;;1.20;;
5955;SDS011;3004;48.080;11.600;2023-04-25T10:30:58;67.57;;;1.40;;
5955;SDS011;3004;48.080;11.600;2023-04-25T10:33:35;67.30;;;1.50;;
5955;SDS011;3004;48.080;11.600;2023-04-25T10:36:12;67.40;;;1.20;;
5955;SDS011;3004;48.080;11.600;2023-04-25T10:38:45;67.30;;;1.37;;
5955;SDS011;3004;48.080;11.600;2023-04-25T10:41:24;73.20;;;1.60;;
5955;SDS011;3004;48.080;11.600;2023-04-25T10:43:59;67.17;;;1.30;;
5955;SDS011;3004;48.080;11.600;2023-04-25T10:46:42;67.37;;;1.40;;
5955;SDS011;3004;48.080;11.600;2023-04-25T10:52:17;67.33;;;1.20;;
5955;SDS011;3004;48.080;11.600;2023-04-25T10:55:03;66.70;;;1.10;;
5955;SDS011;3004;48.080;11.600;2023-04-25T10:57:36;67.27;;;1.67;;
5955;SDS011;3004;48.080;11.600;2023-04-25T11:06:20;66.77;;;1.20;;
5955;SDS011;3004;48.080;11.600;2023-04-25T11:11:42;67.17;;;1.30;;
5955;SDS011;3004;48.080;11.600;2023-04-25T11:14:10;66.30;;;1.30;;
5955;SDS011;3004;48.080;11.600;2023-04-25T11:16:40;66.50;;;1.27;;
5955;SDS011;3004;48.080;11.600;2023-04-25T11:19:07;66.57;;;1.20;;
5955;SDS011;3004;48.080;11.600;2023-04-25T11:21:41;66.70;;;1.27;;
5955;SDS011;3004;48.080;11.600;2023-04-25T11:24:26;67.20;;;1.50;;
5955;SDS011;3004;48.080;11.600;2023-04-25T11:26:55;66.77;;;1.60;;
5955;SDS011;3004;48.080;11.600;2023-04-25T11:29:22;66.10;;;1.30;;
5955;SDS011;3004;48.080;11.600;2023-04-25T11:31:50;66.47;;;1.40;;
5955;SDS011;3004;48.080;11.600;2023-04-25T11:34:21;66.87;;;2.33;;
5955;SDS011;3004;48.080;11.600;2023-04-25T11:36:52;66.47;;;1.70;;
5955;SDS011;3004;48.080;11.600;2023-04-25T11:39:20;66.57;;;2.10;;
5955;SDS011;3004;48.080;11.600;2023-04-25T11:41:48;66.43;;;2.10;;
5955;SDS011;3004;48.080;11.600;2023-04-25T11:44:17;66.47;;;2.30;;
5955;SDS011;3004;48.080;11.600;2023-04-25T11:46:45;66.80;;;2.57;;
5955;SDS011;3004;48.080;11.600;2023-04-25T11:49:12;66.87;;;2.60;;
5955;SDS011;3004;48.080;11.600;2023-04-25T11:51:40;67.13;;;2.63;;
5955;SDS011;3004;48.080;11.600;2023-04-25T12:00:22;67.20;;;2.80;;
5955;SDS011;3004;48.080;11.600;2023-04-25T12:02:53;67.17;;;2.90;;
5955;SDS011;3004;48.080;11.600;2023-04-25T12:05:23;67.50;;;2.80;;
5955;SDS011;3004;48.080;11.600;2023-04-25T12:07:51;67.80;;;3.00;;
5955;SDS011;3004;48.080;11.600;2023-04-25T12:10:19;68.23;;;3.07;;
5955;SDS011;3004;48.080;11.600;2023-04-25T12:12:47;68.30;;;3.00;;
5955;SDS011;3004;48.080;11.600;2023-04-25T12:15:15;68.40;;;3.30;;
5955;SDS011;3004;48.080;11.600;2023-04-25T12:17:46;68.23;;;3.10;;
5955;SDS011;3004;48.080;11.600;2023-04-25T12:20:31;68.20;;;3.10;;
5955;SDS011;3004;48.080;11.600;2023-04-25T12:23:00;68.50;;;3.20;;
5955;SDS011;3004;48.080;11.600;2023-04-25T12:25:34;69.00;;;3.40;;
5955;SDS011;3004;48.080;11.600;2023-04-25T12:28:11;69.10;;;3.60;;
5955;SDS011;3004;48.080;11.600;2023-04-25T12:30:55;69.07;;;3.50;;
5955;SDS011;3004;48.080;11.600;2023-04-25T12:33:24;69.20;;;3.50;;
5955;SDS011;3004;48.080;11.600;2023-04-25T12:35:52;69.80;;;3.67;;
5955;SDS011;3004;48.080;11.600;2023-04-25T12:38:23;69.40;;;3.63;;
5955;SDS011;3004;48.080;11.600;2023-04-25T12:40:52;70.07;;;3.80;;
5955;SDS011;3004;48.080;11.600;2023-04-25T12:43:20;70.37;;;3.90;;
5955;SDS011;3004;48.080;11.600;2023-04-25T12:45:48;70.27;;;4.20;;
5955;SDS011;3004;48.080;11.600;2023-04-25T12:48:16;69.67;;;3.80;;
5955;SDS011;3004;48.080;11.600;2023-04-25T12:50:48;69.27;;;3.60;;
5955;SDS011;3004;48.080;11.600;2023-04-25T12:53:16;68.90;;;3.70;;
5955;SDS011;3004;48.080;11.600;2023-04-25T12:55:44;69.13;;;3.70;;
5955;SDS011;3004;48.080;11.600;2023-04-25T12:58:12;69.90;;;3.87;;
5955;SDS011;3004;48.080;11.600;2023-04-25T13:00:42;69.80;;;3.90;;
5955;SDS011;3004;48.080;11.600;2023-04-25T13:03:10;69.40;;;3.80;;
5955;SDS011;3004;48.080;11.600;2023-04-25T13:05:37;69.80;;;3.80;;
5955;SDS011;3004;48.080;11.600;2023-04-25T13:08:06;69.83;;;3.80;;
5955;SDS011;3004;48.080;11.600;2023-04-25T13:10:33;69.53;;;3.87;;
5955;SDS011;3004;48.080;11.600;2023-04-25T13:13:06;69.30;;;3.60;;
5955;SDS011;3004;48.080;11.600;2023-04-25T13:15:33;69.20;;;3.70;;
5955;SDS011;3004;48.080;11.600;2023-04-25T13:18:02;69.37;;;3.77;;
5955;SDS011;3004;48.080;11.600;2023-04-25T13:20:33;68.70;;;3.50;;
5955;SDS011;3004;48.080;11.600;2023-04-25T13:56:41;69.70;;;4.00;;
5955;SDS011;3004;48.080;11.600;2023-04-25T13:59:24;69.40;;;3.80;;
5955;SDS011;3004;48.080;11.600;2023-04-25T14:01:51;69.47;;;3.90;;
5955;SDS011;3004;48.080;11.600;2023-04-25T14:04:23;69.87;;;3.97;;
5955;SDS011;3004;48.080;11.600;2023-04-25T14:06:51;69.97;;;4.00;;
5955;SDS011;3004;48.080;11.600;2023-04-25T14:09:19;70.23;;;4.00;;
5955;SDS011;3004;48.080;11.600;2023-04-25T14:11:55;69.70;;;3.93;;
5955;SDS011;3004;48.080;11.600;2023-04-25T14:17:38;70.47;;;4.10;;
5955;SDS011;3004;48.080;11.600;2023-04-25T14:20:06;70.47;;;4.13;;
5955;SDS011;3004;48.080;11.600;2023-04-25T14:22:34;70.40;;;4.17;;
5955;SDS011;3004;48.080;11.600;2023-04-25T14:25:02;70.80;;;4.30;;
5955;SDS011;3004;48.080;11.600;2023-04-25T14:27:42;70.93;;;4.60;;
5955;SDS011;3004;48.080;11.600;2023-04-25T14:30:14;71.57;;;4.70;;
5955;SDS011;3004;48.080;11.600;2023-04-25T14:32:42;71.97;;;4.80;;
5955;SDS011;3004;48.080;11.600;2023-04-25T14:35:10;71.73;;;4.90;;
5955;SDS011;3004;48.080;11.600;2023-04-25T14:37:37;71.50;;;4.83;;
5955;SDS011;3004;48.080;11.600;2023-04-25T14:40:06;72.10;;;4.90;;
5955;SDS011;3004;48.080;11.600;2023-04-25T14:42:38;71.77;;;5.03;;
5955;SDS011;3004;48.080;11.600;2023-04-25T14:45:05;72.80;;;5.23;;
5955;SDS011;3004;48.080;11.600;2023-04-25T14:47:33;71.43;;;4.90;;
5955;SDS011;3004;48.080;11.600;2023-04-25T14:50:01;70.80;;;4.60;;
5955;SDS011;3004;48.080;11.600;2023-04-25T14:52:29;71.20;;;4.57;;
5955;SDS011;3004;48.080;11.600;2023-04-25T14:54:57;70.97;;;4.60;;
5955;SDS011;3004;48.080;11.600;2023-04-25T14:57:30;70.90;;;4.50;;
5955;SDS011;3004;48.080;11.600;2023-04-25T15:00:00;71.30;;;4.60;;
5955;SDS011;3004;48.080;11.600;2023-04-25T15:02:27;70.37;;;4.30;;
5955;SDS011;3004;48.080;11.600;2023-04-25T15:04:55;69.70;;;4.07;;
5955;SDS011;3004;48.080;11.600;2023-04-25T15:07:22;69.90;;;4.03;;
5955;SDS011;3004;48.080;11.600;2023-04-25T15:09:49;69.90;;;4.17;;
5955;SDS011;3004;48.080;11.600;2023-04-25T15:12:24;68.80;;;3.80;;
5955;SDS011;3004;48.080;11.600;2023-04-25T15:14:53;68.90;;;3.67;;
5955;SDS011;3004;48.080;11.600;2023-04-25T15:17:28;69.20;;;3.70;;
5955;SDS011;3004;48.080;11.600;2023-04-25T15:19:56;69.70;;;4.00;;
5955;SDS011;3004;48.080;11.600;2023-04-25T15:22:23;69.40;;;3.80;;
5955;SDS011;3004;48.080;11.600;2023-04-25T15:24:51;69.77;;;4.10;;
5955;SDS011;3004;48.080;11.600;2023-04-25T15:27:19;69.30;;;3.83;;
5955;SDS011;3004;48.080;11.600;2023-04-25T15:29:47;69.30;;;4.00;;
5955;SDS011;3004;48.080;11.600;2023-04-25T15:32:14;69.10;;;3.80;;
5955;SDS011;3004;48.080;11.600;2023-04-25T15:34:43;68.87;;;3.70;;
5955;SDS011;3004;48.080;11.600;2023-04-25T15:37:10;69.47;;;3.80;;
5955;SDS011;3004;48.080;11.600;2023-04-25T15:39:37;69.50;;;3.90;;
5955;SDS011;3004;48.080;11.600;2023-04-25T15:42:05;69.50;;;3.83;;
5955;SDS011;3004;48.080;11.600;2023-04-25T15:44:32;69.77;;;4.00;;
5955;SDS011;3004;48.080;11.600;2023-04-25T15:46:59;69.60;;;3.93;;
5955;SDS011;3004;48.080;11.600;2023-04-25T15:49:27;69.50;;;3.97;;
5955;SDS011;3004;48.080;11.600;2023-04-25T15:51:56;69.30;;;4.00;;
5955;SDS011;3004;48.080;11.600;2023-04-25T15:54:24;69.70;;;4.00;;
5955;SDS011;3004;48.080;11.600;2023-04-25T15:56:51;69.47;;;3.80;;
5955;SDS011;3004;48.080;11.600;2023-04-25T15:59:19;69.10;;;3.70;;
5955;SDS011;3004;48.080;11.600;2023-04-25T16:01:46;68.27;;;3.60;;
5955;SDS011;3004;48.080;11.600;2023-04-25T16:04:15;68.80;;;3.60;;
5955;SDS011;3004;48.080;11.600;2023-04-25T16:06:43;68.80;;;3.60;;
5955;SDS011;3004;48.080;11.600;2023-04-25T16:09:12;68.40;;;3.60;;
5955;SDS011;3004;48.080;11.600;2023-04-25T16:11:41;68.50;;;3.40;;
5955;SDS011;3004;48.080;11.600;2023-04-25T16:14:08;68.27;;;3.30;;
5955;SDS011;3004;48.080;11.600;2023-04-25T16:16:36;68.47;;;3.50;;
5955;SDS011;3004;48.080;11.600;2023-04-25T16:19:03;68.67;;;3.47;;
5955;SDS011;3004;48.080;11.600;2023-04-25T16:21:30;68.80;;;3.50;;
5955;SDS011;3004;48.080;11.600;2023-04-25T16:23:58;68.60;;;3.50;;
5955;SDS011;3004;48.080;11.600;2023-04-25T16:26:27;68.97;;;3.70;;
5955;SDS011;3004;48.080;11.600;2023-04-25T16:28:55;69.23;;;3.70;;
5955;SDS011;3004;48.080;11.600;2023-04-25T16:31:22;69.07;;;4.03;;
5955;SDS011;3004;48.080;11.600;2023-04-25T16:33:49;68.97;;;3.63;;
5955;SDS011;3004;48.080;11.600;2023-04-25T16:36:26;68.90;;;3.80;;
5955;SDS011;3004;48.080;11.600;2023-04-25T16:39:01;68.90;;;3.60;;
5955;SDS011;3004;48.080;11.600;2023-04-25T16:41:31;68.80;;;3.67;;
5955;SDS011;3004;48.080;11.600;2023-04-25T16:43:58;68.37;;;3.50;;
5955;SDS011;3004;48.080;11.600;2023-04-25T16:46:26;68.37;;;3.63;;
5955;SDS011;3004;48.080;11.600;2023-04-25T16:48:53;68.63;;;3.47;;
5955;SDS011;3004;48.080;11.600;2023-04-25T16:51:21;68.97;;;3.60;;
5955;SDS011;3004;48.080;11.600;2023-04-25T16:53:48;68.80;;;3.60;;
5955;SDS011;3004;48.080;11.600;2023-04-25T16:56:15;68.50;;;3.67;;
5955;SDS011;3004;48.080;11.600;2023-04-25T16:58:47;68.80;;;3.63;;
5955;SDS011;3004;48.080;11.600;2023-04-25T17:01:14;69.17;;;3.60;;
5955;SDS011;3004;48.080;11.600;2023-04-25T17:03:44;68.70;;;3.60;;
5955;SDS011;3004;48.080;11.600;2023-04-25T17:06:11;68.80;;;3.60;;
5955;SDS011;3004;48.080;11.600;2023-04-25T17:08:41;69.33;;;3.80;;
5955;SDS011;3004;48.080;11.600;2023-04-25T17:11:09;69.00;;;3.63;;
5955;SDS011;3004;48.080;11.600;2023-04-25T17:13:36;68.90;;;3.70;;
5955;SDS011;3004;48.080;11.600;2023-04-25T17:16:10;68.63;;;3.60;;
5955;SDS011;3004;48.080;11.600;2023-04-25T17:18:45;68.97;;;3.70;;
5955;SDS011;3004;48.080;11.600;2023-04-25T17:21:12;68.63;;;3.60;;
5955;SDS011;3004;48.080;11.600;2023-04-25T17:23:41;68.40;;;3.47;;
5955;SDS011;3004;48.080;11.600;2023-04-25T17:26:10;69.07;;;3.50;;
5955;SDS011;3004;48.080;11.600;2023-04-25T17:28:40;68.73;;;3.57;;
5955;SDS011;3004;48.080;11.600;2023-04-25T17:31:14;69.00;;;3.57;;
5955;SDS011;3004;48.080;11.600;2023-04-25T17:33:46;68.80;;;3.60;;
5955;SDS011;3004;48.080;11.600;2023-04-25T17:36:14;69.00;;;3.53;;
5955;SDS011;3004;48.080;11.600;2023-04-25T17:38:42;68.50;;;3.60;;
5955;SDS011;3004;48.080;11.600;2023-04-25T17:41:09;68.90;;;3.60;;
5955;SDS011;3004;48.080;11.600;2023-04-25T17:43:39;69.30;;;3.70;;
5955;SDS011;3004;48.080;11.600;2023-04-25T17:46:06;69.27;;;3.97;;
5955;SDS011;3004;48.080;11.600;2023-04-25T17:48:42;68.93;;;3.60;;
5955;SDS011;3004;48.080;11.600;2023-04-25T17:51:14;68.77;;;3.50;;
5955;SDS011;3004;48.080;11.600;2023-04-25T17:53:41;68.60;;;3.60;;
5955;SDS011;3004;48.080;11.600;2023-04-25T17:56:11;68.67;;;3.50;;
5955;SDS011;3004;48.080;11.600;2023-04-25T17:58:38;68.87;;;3.60;;
5955;SDS011;3004;48.080;11.600;2023-04-25T18:01:06;68.90;;;3.60;;
5955;SDS011;3004;48.080;11.600;2023-04-25T18:03:34;68.63;;;3.50;;
5955;SDS011;3004;48.080;11.600;2023-04-25T18:06:04;68.30;;;3.53;;
5955;SDS011;3004;48.080;11.600;2023-04-25T18:08:34;68.57;;;3.50;;
5955;SDS011;3004;48.080;11.600;2023-04-25T18:14:10;69.17;;;3.60;;
5955;SDS011;3004;48.080;11.600;2023-04-25T18:16:39;68.40;;;3.60;;
5955;SDS011;3004;48.080;11.600;2023-04-25T18:19:11;69.07;;;3.60;;
5955;SDS011;3004;48.080;11.600;2023-04-25T18:21:40;69.57;;;4.20;;
5955;SDS011;3004;48.080;11.600;2023-04-25T18:24:09;69.07;;;3.60;;
5955;SDS011;3004;48.080;11.600;2023-04-25T18:26:41;69.20;;;3.70;;
5955;SDS011;3004;48.080;11.600;2023-04-25T18:29:11;69.00;;;3.70;;
5955;SDS011;3004;48.080;11.600;2023-04-25T18:31:52;68.80;;;4.00;;
5955;SDS011;3004;48.080;11.600;2023-04-25T18:34:21;68.90;;;3.77;;
5955;SDS011;3004;48.080;11.600;2023-04-25T18:36:51;68.60;;;3.50;;
5955;SDS011;3004;48.080;11.600;2023-04-25T18:39:21;68.30;;;3.60;;
5955;SDS011;3004;48.080;11.600;2023-04-25T18:41:49;68.50;;;3.50;;
5955;SDS011;3004;48.080;11.600;2023-04-25T18:44:16;68.50;;;3.40;;
5955;SDS011;3004;48.080;11.600;2023-04-25T18:46:44;68.53;;;3.37;;
5955;SDS011;3004;48.080;11.600;2023-04-25T18:49:11;69.10;;;3.57;;
5955;SDS011;3004;48.080;11.600;2023-04-25T18:51:41;68.90;;;3.63;;
5955;SDS011;3004;48.080;11.600;2023-04-25T18:54:10;69.60;;;3.80;;
5955;SDS011;3004;48.080;11.600;2023-04-25T18:56:38;70.10;;;4.00;;
5955;SDS011;3004;48.080;11.600;2023-04-25T18:59:06;70.03;;;4.10;;
5955;SDS011;3004;48.080;11.600;2023-04-25T19:01:33;70.60;;;4.80;;
5955;SDS011;3004;48.080;11.600;2023-04-25T19:04:03;71.00;;;4.37;;
5955;SDS011;3004;48.080;11.600;2023-04-25T19:06:38;71.00;;;4.57;;
5955;SDS011;3004;48.080;11.600;2023-04-25T19:12:06;71.27;;;4.67;;
5955;SDS011;3004;48.080;11.600;2023-04-25T19:14:45;71.77;;;4.80;;
5955;SDS011;3004;48.080;11.600;2023-04-25T19:17:16;72.00;;;4.97;;
5955;SDS011;3004;48.080;11.600;2023-04-25T19:23:23;72.57;;;5.27;;
5955;SDS011;3004;48.080;11.600;2023-04-25T19:29:15;72.47;;;5.40;;
5955;SDS011;3004;48.080;11.600;2023-04-25T19:31:45;72.70;;;5.47;;
5955;SDS011;3004;48.080;11.600;2023-04-25T19:34:12;72.80;;;5.40;;
5955;SDS011;3004;48.080;11.600;2023-04-25T19:36:40;73.00;;;5.47;;
5955;SDS011;3004;48.080;11.600;2023-04-25T19:39:10;72.97;;;5.50;;
5955;SDS011;3004;48.080;11.600;2023-04-25T19:41:37;72.80;;;5.50;;
5955;SDS011;3004;48.080;11.600;2023-04-25T19:44:06;72.70;;;5.53;;
5955;SDS011;3004;48.080;11.600;2023-04-25T19:46:35;72.90;;;5.57;;
5955;SDS011;3004;48.080;11.600;2023-04-25T19:49:06;73.07;;;5.60;;
5955;SDS011;3004;48.080;11.600;2023-04-25T19:51:34;73.00;;;5.60;;
5955;SDS011;3004;48.080;11.600;2023-04-25T19:54:01;72.60;;;5.77;;
5955;SDS011;3004;48.080;11.600;2023-04-25T19:56:29;73.00;;;5.70;;
5955;SDS011;3004;48.080;11.600;2023-04-25T19:58:58;72.90;;;5.63;;
5955;SDS011;3004;48.080;11.600;2023-04-25T20:01:26;72.90;;;5.67;;
5955;SDS011;3004;48.080;11.600;2023-04-25T20:09:42;72.70;;;5.70;;
5955;SDS011;3004;48.080;11.600;2023-04-25T20:12:23;72.77;;;5.70;;
5955;SDS011;3004;48.080;11.600;2023-04-25T20:14:51;73.00;;;5.70;;
5955;SDS011;3004;48.080;11.600;2023-04-25T20:20:21;72.93;;;5.87;;
5955;SDS011;3004;48.080;11.600;2023-04-25T20:22:49;73.10;;;5.77;;
5955;SDS011;3004;48.080;11.600;2023-04-25T20:28:32;72.57;;;5.77;;
5955;SDS011;3004;48.080;11.600;2023-04-25T20:34:05;72.93;;;5.80;;
5955;SDS011;3004;48.080;11.600;2023-04-25T20:36:40;73.10;;;5.80;;
5955;SDS011;3004;48.080;11.600;2023-04-25T20:39:13;73.27;;;5.93;;
5955;SDS011;3004;48.080;11.600;2023-04-25T20:45:06;73.57;;;6.07;;
5955;SDS011;3004;48.080;11.600;2023-04-25T20:50:40;73.10;;;5.97;;
5955;SDS011;3004;48.080;11.600;2023-04-25T20:53:07;73.00;;;6.10;;
5955;SDS011;3004;48.080;11.600;2023-04-25T20:58:39;73.27;;;6.00;;
5955;SDS011;3004;48.080;11.600;2023-04-25T21:01:09;73.20;;;5.97;;
5955;SDS011;3004;48.080;11.600;2023-04-25T21:03:36;73.47;;;6.03;;
5955;SDS011;3004;48.080;11.600;2023-04-25T21:06:04;73.10;;;6.03;;
5955;SDS011;3004;48.080;11.600;2023-04-25T21:08:31;73.37;;;5.97;;
5955;SDS011;3004;48.080;11.600;2023-04-25T21:10:59;73.27;;;6.07;;
5955;SDS011;3004;48.080;11.600;2023-04-25T21:13:26;72.83;;;5.90;;
5955;SDS011;3004;48.080;11.600;2023-04-25T21:15:53;73.30;;;5.97;;
5955;SDS011;3004;48.080;11.600;2023-04-25T21:18:23;72.47;;;5.90;;
5955;SDS011;3004;48.080;11.600;2023-04-25T21:20:53;72.93;;;5.93;;
5955;SDS011;3004;48.080;11.600;2023-04-25T21:23:22;72.90;;;6.00;;
5955;SDS011;3004;48.080;11.600;2023-04-25T21:25:49;72.97;;;5.83;;
5955;SDS011;3004;48.080;11.600;2023-04-25T21:28:18;73.07;;;5.80;;
5955;SDS011;3004;48.080;11.600;2023-04-25T21:30:47;73.23;;;5.87;;
5955;SDS011;3004;48.080;11.600;2023-04-25T21:33:14;73.00;;;5.83;;
5955;SDS011;3004;48.080;11.600;2023-04-25T21:35:55;75.23;;;6.87;;
5955;SDS011;3004;48.080;11.600;2023-04-25T21:38:22;73.00;;;5.83;;
5955;SDS011;3004;48.080;11.600;2023-04-25T21:40:51;72.60;;;5.90;;
5955;SDS011;3004;48.080;11.600;2023-04-25T21:43:19;72.90;;;5.83;;
5955;SDS011;3004;48.080;11.600;2023-04-25T21:45:46;72.80;;;5.80;;
5955;SDS011;3004;48.080;11.600;2023-04-25T21:48:14;72.93;;;5.87;;
5955;SDS011;3004;48.080;11.600;2023-04-25T21:53:46;72.97;;;5.77;;
5955;SDS011;3004;48.080;11.600;2023-04-25T21:56:13;72.90;;;5.87;;
5955;SDS011;3004;48.080;11.600;2023-04-25T21:58:41;72.50;;;5.70;;
5955;SDS011;3004;48.080;11.600;2023-04-25T22:01:09;72.97;;;5.77;;
5955;SDS011;3004;48.080;11.600;2023-04-25T22:03:36;72.90;;;6.00;;
5955;SDS011;3004;48.080;11.600;2023-04-25T22:09:09;72.60;;;5.70;;
5955;SDS011;3004;48.080;11.600;2023-04-25T22:14:39;72.40;;;5.63;;
5955;SDS011;3004;48.080;11.600;2023-04-25T22:17:14;73.30;;;7.03;;
5955;SDS011;3004;48.080;11.600;2023-04-25T22:19:51;72.53;;;5.80;;
5955;SDS011;3004;48.080;11.600;2023-04-25T22:22:19;72.37;;;5.80;;
5955;SDS011;3004;48.080;11.600;2023-04-25T22:24:48;72.20;;;5.57;;
5955;SDS011;3004;48.080;11.600;2023-04-25T22:27:21;72.20;;;5.63;;
5955;SDS011;3004;48.080;11.600;2023-04-25T22:29:58;72.50;;;5.70;;
5955;SDS011;3004;48.080;11.600;2023-04-25T22:32:39;72.70;;;5.73;;
5955;SDS011;3004;48.080;11.600;2023-04-25T22:35:09;73.13;;;6.20;;
5955;SDS011;3004;48.080;11.600;2023-04-25T22:37:41;72.60;;;5.70;;
5955;SDS011;3004;48.080;11.600;2023-04-25T22:43:37;72.20;;;5.70;;
5955;SDS011;3004;48.080;11.600;2023-04-25T22:46:05;72.57;;;5.73;;
5955;SDS011;3004;48.080;11.600;2023-04-25T22:51:36;72.70;;;5.77;;
5955;SDS011;3004;48.080;11.600;2023-04-25T22:54:03;72.47;;;5.73;;
5955;SDS011;3004;48.080;11.600;2023-04-25T22:59:36;72.77;;;6.40;;
5955;SDS011;3004;48.080;11.600;2023-04-25T23:02:04;72.47;;;5.73;;
5955;SDS011;3004;48.080;11.600;2023-04-25T23:04:31;72.30;;;5.97;;
5955;SDS011;3004;48.080;11.600;2023-04-25T23:07:10;72.70;;;5.83;;
5955;SDS011;3004;48.080;11.600;2023-04-25T23:09:40;72.87;;;5.83;;
5955;SDS011;3004;48.080;11.600;2023-04-25T23:12:09;72.70;;;6.00;;
5955;SDS011;3004;48.080;11.600;2023-04-25T23:14:44;72.73;;;5.90;;